Time;durP1;ratioP1;P1;durP2;ratioP2;P2;SDS_P1;SDS_P2;PMS_P1;PMS_P2;Temp;Humidity;BMP_temperature;BMP_pressure;BME280_temperature;BME280_humidity;BME280_pressure;Samples;Min_cycle;Max_cycle;Signal;HPM_P1;HPM_P2
2023/09/24 00:01:26;;;;;;;4.87;2.63;;;14.30;27.40;;;;;;4987955;28;20516;-66
2023/09/24 00:03:53;;;;;;;6.03;2.43;;;14.30;27.30;;;;;;4992847;28;20903;-66
2023/09/24 00:06:20;;;;;;;8.87;3.00;;;14.30;27.10;;;;;;4987446;28;20476;-66
2023/09/24 00:08:48;;;;;;;4.90;2.60;;;14.30;27.10;;;;;;4987695;28;20492;-66
2023/09/24 00:11:15;;;;;;;6.17;2.43;;;14.20;27.20;;;;;;4989278;28;20471;-67
2023/09/24 00:13:42;;;;;;;5.97;2.10;;;14.20;27.40;;;;;;4982559;28;20929;-67
2023/09/24 00:16:10;;;;;;;12.50;2.90;;;14.20;27.40;;;;;;4982111;28;20496;-66
2023/09/24 00:18:38;;;;;;;5.37;2.63;;;14.20;27.40;;;;;;4981583;28;21158;-66
2023/09/24 00:21:06;;;;;;;5.00;1.97;;;14.20;27.50;;;;;;4990199;28;20477;-66
2023/09/24 00:23:33;;;;;;;4.47;2.30;;;14.20;27.60;;;;;;4984599;28;20488;-67
2023/09/24 00:26:01;;;;;;;4.90;2.57;;;14.20;27.40;;;;;;4988320;28;20977;-66
2023/09/24 00:28:27;;;;;;;5.07;2.20;;;14.20;27.40;;;;;;4985792;28;20981;-67
2023/09/24 00:30:55;;;;;;;4.90;2.67;;;14.20;27.40;;;;;;4981240;28;20487;-66
2023/09/24 00:33:21;;;;;;;5.20;2.40;;;14.20;27.50;;;;;;4982783;28;20465;-66
2023/09/24 00:35:48;;;;;;;4.47;2.13;;;14.20;27.60;;;;;;4987576;28;20850;-66
2023/09/24 00:38:15;;;;;;;5.53;3.20;;;14.20;27.90;;;;;;4987963;28;20469;-68
2023/09/24 00:40:42;;;;;;;6.27;3.40;;;14.20;28.10;;;;;;4983171;28;20469;-67
2023/09/24 00:43:28;;;;;;;5.90;2.80;;;14.20;28.40;;;;;;4987047;28;20468;-66
2023/09/24 00:45:56;;;;;;;4.60;2.43;;;14.20;28.40;;;;;;4982132;28;20476;-66
2023/09/24 00:48:27;;;;;;;5.77;2.90;;;14.20;28.10;;;;;;4983868;28;20496;-66
2023/09/24 00:50:56;;;;;;;4.93;2.60;;;14.20;28.10;;;;;;4985921;28;20476;-66
2023/09/24 00:53:24;;;;;;;5.13;2.80;;;14.30;28.10;;;;;;4985645;28;20475;-66
2023/09/24 00:55:50;;;;;;;5.40;2.70;;;14.20;28.20;;;;;;4988961;28;20456;-66
2023/09/24 00:58:18;;;;;;;6.13;2.60;;;14.30;28.40;;;;;;4983169;28;20981;-66
2023/09/24 01:00:47;;;;;;;5.30;2.73;;;14.30;28.50;;;;;;4986975;28;20460;-67
2023/09/24 01:03:15;;;;;;;5.13;2.90;;;14.20;28.30;;;;;;4986939;28;20470;-66
2023/09/24 01:05:41;;;;;;;5.07;2.57;;;14.30;28.30;;;;;;4988356;28;20556;-66
2023/09/24 01:08:09;;;;;;;7.20;3.03;;;14.20;28.50;;;;;;4984721;28;20460;-67
2023/09/24 01:10:37;;;;;;;5.30;2.67;;;14.20;28.40;;;;;;4987497;28;20476;-67
2023/09/24 01:13:04;;;;;;;5.67;2.67;;;14.20;28.50;;;;;;4991720;28;20527;-67
2023/09/24 01:15:31;;;;;;;5.17;2.77;;;14.20;28.40;;;;;;4987234;28;20555;-67
2023/09/24 01:18:01;;;;;;;5.30;2.93;;;14.20;28.60;;;;;;4988861;28;20843;-66
2023/09/24 01:20:31;;;;;;;6.20;3.00;;;14.20;28.70;;;;;;4988556;28;20567;-67
2023/09/24 01:23:03;;;;;;;5.20;3.27;;;14.10;28.90;;;;;;4987306;28;20552;-67
2023/09/24 01:25:34;;;;;;;7.43;3.17;;;14.10;28.70;;;;;;4988529;28;20534;-67
2023/09/24 01:28:05;;;;;;;6.03;3.07;;;14.10;28.70;;;;;;4987792;28;20995;-67
2023/09/24 01:30:33;;;;;;;9.20;3.10;;;14.00;28.40;;;;;;4985649;28;20992;-67
2023/09/24 01:32:59;;;;;;;5.70;2.87;;;14.00;28.40;;;;;;4987845;28;20543;-66
2023/09/24 01:35:27;;;;;;;8.33;3.50;;;13.90;28.20;;;;;;4990212;28;20503;-66
2023/09/24 01:37:55;;;;;;;5.17;2.80;;;13.90;28.30;;;;;;4987132;28;20878;-66
2023/09/24 01:40:25;;;;;;;6.63;2.93;;;13.80;28.20;;;;;;4987587;28;21042;-67
2023/09/24 01:42:55;;;;;;;6.27;2.90;;;13.70;28.80;;;;;;4984557;28;20552;-66
2023/09/24 01:45:21;;;;;;;6.37;2.70;;;13.70;28.20;;;;;;4987665;28;20511;-67
2023/09/24 01:47:49;;;;;;;6.40;2.80;;;13.60;28.20;;;;;;4987876;28;20501;-68
2023/09/24 01:50:17;;;;;;;5.50;2.80;;;13.50;28.20;;;;;;4989130;28;20565;-66
2023/09/24 01:52:45;;;;;;;10.17;3.50;;;13.40;28.20;;;;;;4988189;28;20465;-67
2023/09/24 01:55:15;;;;;;;5.93;3.10;;;13.40;28.50;;;;;;4983932;28;20572;-67
2023/09/24 01:57:43;;;;;;;6.70;3.13;;;13.30;28.70;;;;;;4991419;28;20885;-67
2023/09/24 02:00:13;;;;;;;7.33;3.87;;;13.30;28.90;;;;;;4988218;28;20825;-66
2023/09/24 02:02:40;;;;;;;5.00;2.90;;;13.20;28.90;;;;;;4982450;28;21090;-66
2023/09/24 02:05:10;;;;;;;5.20;3.07;;;13.20;28.80;;;;;;4982847;28;20863;-66
2023/09/24 02:07:38;;;;;;;7.53;3.27;;;13.10;29.00;;;;;;4985556;28;20465;-66
2023/09/24 02:10:06;;;;;;;5.77;2.63;;;13.10;29.10;;;;;;4985012;28;20490;-67
2023/09/24 02:12:35;;;;;;;5.43;2.67;;;13.00;29.00;;;;;;4987494;28;20969;-66
2023/09/24 02:15:11;;;;;;;6.17;2.70;;;13.00;29.00;;;;;;4987257;28;21101;-66
2023/09/24 02:17:40;;;;;;;4.77;2.03;;;12.90;29.00;;;;;;4989641;28;20472;-66
2023/09/24 02:20:18;;;;;;;5.10;2.77;;;12.80;28.80;;;;;;4987379;28;21000;-66
2023/09/24 02:22:45;;;;;;;4.90;2.60;;;12.80;28.80;;;;;;4983038;28;21188;-66
2023/09/24 02:25:13;;;;;;;5.43;3.20;;;12.70;28.70;;;;;;4985195;28;21203;-66
2023/09/24 02:27:40;;;;;;;5.30;2.80;;;12.60;28.90;;;;;;4989673;28;21133;-67
2023/09/24 02:30:11;;;;;;;5.90;2.50;;;12.60;28.90;;;;;;4989492;28;20563;-66
2023/09/24 02:32:38;;;;;;;5.23;2.87;;;12.50;29.30;;;;;;4988521;28;20527;-67
2023/09/24 02:35:07;;;;;;;5.13;2.70;;;12.50;29.40;;;;;;4986027;28;20520;-66
2023/09/24 02:37:33;;;;;;;5.20;2.43;;;12.40;29.40;;;;;;4989253;28;20476;-66
2023/09/24 02:40:03;;;;;;;9.70;3.60;;;12.40;29.50;;;;;;4987078;28;20941;-66
2023/09/24 02:42:29;;;;;;;5.27;2.50;;;12.40;29.70;;;;;;4987753;28;20519;-66
2023/09/24 02:44:56;;;;;;;5.37;2.60;;;12.30;29.70;;;;;;4984295;28;20484;-66
2023/09/24 02:47:24;;;;;;;5.30;2.80;;;12.30;30.00;;;;;;4988245;28;20473;-67
2023/09/24 02:49:51;;;;;;;5.53;3.03;;;12.20;30.30;;;;;;4987563;28;20485;-66
2023/09/24 02:52:18;;;;;;;6.23;3.10;;;12.20;31.10;;;;;;4983751;28;20511;-66
2023/09/24 02:54:45;;;;;;;5.00;2.80;;;12.20;30.40;;;;;;4986174;28;20567;-67
2023/09/24 02:57:12;;;;;;;6.00;2.70;;;12.20;30.40;;;;;;4987970;28;20472;-66
2023/09/24 02:59:38;;;;;;;6.20;3.30;;;12.10;30.50;;;;;;4992994;28;20456;-67
2023/09/24 03:02:06;;;;;;;9.33;2.77;;;12.10;30.80;;;;;;4998582;28;20480;-66
2023/09/24 03:04:35;;;;;;;6.03;2.90;;;12.10;30.80;;;;;;4989151;28;20500;-66
2023/09/24 03:07:02;;;;;;;6.10;3.60;;;12.00;30.80;;;;;;4985877;28;20888;-67
2023/09/24 03:09:30;;;;;;;5.93;3.47;;;12.00;30.90;;;;;;4988527;28;20573;-67
2023/09/24 03:11:57;;;;;;;6.30;3.57;;;12.00;31.10;;;;;;4987049;28;20555;-66
2023/09/24 03:14:23;;;;;;;6.93;3.80;;;12.00;31.60;;;;;;4983153;28;20917;-66
2023/09/24 03:16:50;;;;;;;6.60;3.40;;;12.00;31.40;;;;;;4983270;28;20464;-67
2023/09/24 03:19:17;;;;;;;5.40;3.33;;;11.90;31.50;;;;;;4986475;28;20472;-66
2023/09/24 03:21:45;;;;;;;5.90;2.90;;;11.90;31.50;;;;;;4983899;28;20472;-66
2023/09/24 03:24:14;;;;;;;4.97;3.20;;;11.90;31.50;;;;;;4985870;28;20507;-66
2023/09/24 03:26:41;;;;;;;5.53;3.17;;;11.90;31.50;;;;;;4987380;28;20584;-66
2023/09/24 03:29:08;;;;;;;5.27;2.87;;;11.80;31.60;;;;;;4986542;28;20488;-66
2023/09/24 03:31:34;;;;;;;6.10;3.43;;;11.70;31.90;;;;;;4980687;28;20480;-67
2023/09/24 03:34:02;;;;;;;6.43;2.93;;;11.80;33.00;;;;;;4985749;28;20504;-66
2023/09/24 03:36:30;;;;;;;6.20;3.13;;;11.80;32.40;;;;;;4985448;28;20468;-66
2023/09/24 03:38:58;;;;;;;6.57;3.00;;;11.80;32.50;;;;;;4986574;28;20465;-66
2023/09/24 03:41:25;;;;;;;7.00;2.57;;;11.80;33.80;;;;;;4988266;28;20833;-67
2023/09/24 03:43:52;;;;;;;6.03;2.77;;;11.80;33.30;;;;;;4978890;28;20507;-66
2023/09/24 03:46:19;;;;;;;5.27;3.10;;;11.90;33.50;;;;;;4986023;28;20462;-66
2023/09/24 03:48:46;;;;;;;7.60;3.27;;;11.90;33.40;;;;;;4985303;28;20464;-66
2023/09/24 03:51:13;;;;;;;6.30;2.83;;;11.80;33.20;;;;;;4985313;28;20481;-67
2023/09/24 03:53:39;;;;;;;5.50;3.00;;;11.90;33.00;;;;;;4984347;28;20831;-66
2023/09/24 03:56:08;;;;;;;6.40;3.47;;;11.80;32.80;;;;;;4981743;28;20479;-66
2023/09/24 03:58:34;;;;;;;6.13;2.73;;;11.80;32.60;;;;;;4987062;28;21073;-66
2023/09/24 04:01:09;;;;;;;4.40;2.33;;;11.70;32.50;;;;;;4981509;28;20485;-67
2023/09/24 04:03:36;;;;;;;5.47;2.70;;;11.70;32.50;;;;;;4987175;28;20554;-66
2023/09/24 04:06:09;;;;;;;4.43;2.20;;;11.70;32.20;;;;;;4984731;28;21020;-67
2023/09/24 04:08:35;;;;;;;6.03;3.10;;;11.70;32.00;;;;;;4986421;28;20559;-66
2023/09/24 04:11:06;;;;;;;5.30;2.07;;;11.60;31.80;;;;;;4984974;28;20484;-66
2023/09/24 04:13:35;;;;;;;5.37;2.80;;;11.60;31.60;;;;;;4983310;28;20499;-66
2023/09/24 04:16:07;;;;;;;5.43;2.37;;;11.50;31.70;;;;;;4985953;28;20483;-66
2023/09/24 04:18:35;;;;;;;5.20;2.00;;;11.50;31.90;;;;;;4978502;28;21053;-66
2023/09/24 04:21:01;;;;;;;7.40;3.53;;;11.50;31.70;;;;;;4982959;28;20473;-66
2023/09/24 04:23:28;;;;;;;5.60;2.63;;;11.50;31.50;;;;;;4982088;28;21004;-67
2023/09/24 04:25:55;;;;;;;5.47;2.57;;;11.40;31.50;;;;;;4984455;28;20473;-67
2023/09/24 04:28:22;;;;;;;4.33;2.23;;;11.40;31.40;;;;;;4987136;28;20480;-66
2023/09/24 04:30:50;;;;;;;6.17;2.60;;;11.40;31.50;;;;;;4987376;28;20468;-66
2023/09/24 04:33:17;;;;;;;6.40;2.77;;;11.40;31.40;;;;;;4989622;28;20938;-67
2023/09/24 04:35:45;;;;;;;5.40;2.60;;;11.40;31.40;;;;;;4989271;28;20597;-67
2023/09/24 04:38:11;;;;;;;5.13;2.33;;;11.40;31.40;;;;;;4985725;28;20857;-66
2023/09/24 04:40:38;;;;;;;5.37;2.40;;;11.30;31.40;;;;;;4988347;28;20452;-66
2023/09/24 04:43:05;;;;;;;6.43;2.73;;;11.30;31.40;;;;;;4985345;28;20479;-66
2023/09/24 04:45:32;;;;;;;5.10;2.30;;;11.30;31.50;;;;;;4987644;28;20468;-66
2023/09/24 04:48:00;;;;;;;5.10;2.60;;;11.30;31.60;;;;;;4988439;28;20505;-66
2023/09/24 04:50:27;;;;;;;6.03;2.50;;;11.30;31.50;;;;;;4979874;28;20484;-66
2023/09/24 04:52:55;;;;;;;5.17;2.30;;;11.20;31.60;;;;;;4984698;28;20582;-66
2023/09/24 04:55:21;;;;;;;6.30;2.80;;;11.20;31.60;;;;;;4982256;28;20501;-66
2023/09/24 04:57:48;;;;;;;7.77;3.27;;;11.10;31.40;;;;;;4985990;28;20461;-66
2023/09/24 05:00:16;;;;;;;5.10;2.37;;;11.10;31.40;;;;;;4988455;28;20468;-66
2023/09/24 05:02:43;;;;;;;4.47;2.60;;;11.10;31.50;;;;;;4986638;28;21106;-66
2023/09/24 05:05:11;;;;;;;5.20;2.50;;;11.10;31.50;;;;;;4986615;28;20480;-66
2023/09/24 05:07:38;;;;;;;4.93;2.47;;;11.00;31.60;;;;;;4988454;28;20469;-66
2023/09/24 05:10:06;;;;;;;5.80;2.70;;;11.00;31.70;;;;;;4984401;28;20488;-66
2023/09/24 05:12:33;;;;;;;6.53;2.90;;;10.90;32.10;;;;;;4986994;28;20476;-66
2023/09/24 05:14:59;;;;;;;6.97;3.03;;;11.00;32.00;;;;;;4982558;28;20489;-67
2023/09/24 05:17:26;;;;;;;6.57;2.93;;;11.00;31.90;;;;;;4984320;28;20989;-67
2023/09/24 05:19:53;;;;;;;6.20;2.60;;;11.00;32.00;;;;;;4986762;28;20977;-66
2023/09/24 05:22:23;;;;;;;4.90;2.70;;;11.00;32.60;;;;;;4985702;28;21148;-66
2023/09/24 05:24:50;;;;;;;7.13;3.33;;;11.10;32.00;;;;;;4983780;28;20547;-66
2023/09/24 05:27:17;;;;;;;4.90;2.60;;;11.10;32.10;;;;;;4989885;28;20471;-66
2023/09/24 05:29:46;;;;;;;5.70;2.90;;;11.10;32.10;;;;;;4986141;28;20504;-66
2023/09/24 05:32:15;;;;;;;6.17;3.10;;;11.20;32.00;;;;;;4987687;28;20844;-66
2023/09/24 05:34:41;;;;;;;5.10;2.90;;;11.20;32.20;;;;;;4990573;28;20480;-67
2023/09/24 05:37:08;;;;;;;5.20;2.80;;;11.30;32.30;;;;;;4984449;28;20472;-66
2023/09/24 05:39:36;;;;;;;5.97;2.73;;;11.40;32.10;;;;;;4984727;28;20817;-66
2023/09/24 05:42:04;;;;;;;5.00;2.30;;;11.60;31.80;;;;;;4988849;28;21032;-67
2023/09/24 05:44:32;;;;;;;5.50;3.00;;;11.80;31.60;;;;;;4988296;28;20483;-67
2023/09/24 05:46:59;;;;;;;7.00;2.57;;;12.10;30.90;;;;;;4985697;28;20468;-66
2023/09/24 05:49:26;;;;;;;6.50;3.13;;;12.50;30.60;;;;;;4987063;28;20873;-67
2023/09/24 05:51:52;;;;;;;4.17;2.20;;;12.90;29.70;;;;;;4989070;28;20491;-67
2023/09/24 05:54:19;;;;;;;4.73;1.60;;;13.40;28.60;;;;;;4986102;28;21004;-67
2023/09/24 05:56:47;;;;;;;3.97;1.43;;;13.70;26.40;;;;;;4990868;28;20477;-66
2023/09/24 05:59:14;;;;;;;6.30;2.33;;;13.90;24.70;;;;;;4988215;28;20969;-67
2023/09/24 06:01:42;;;;;;;3.93;1.70;;;14.10;24.20;;;;;;4987699;28;20481;-67
2023/09/24 06:04:09;;;;;;;4.90;2.07;;;14.40;23.70;;;;;;4984911;28;20555;-66
2023/09/24 06:06:36;;;;;;;15.40;2.07;;;14.60;22.70;;;;;;5000861;28;21151;-67
2023/09/24 06:09:08;;;;;;;11.23;2.50;;;14.80;21.70;;;;;;5001369;28;20497;-67
2023/09/24 06:11:35;;;;;;;5.90;2.13;;;14.90;20.80;;;;;;4990790;28;20487;-68
2023/09/24 06:14:08;;;;;;;5.53;2.00;;;15.10;20.40;;;;;;4987485;28;21364;-67
2023/09/24 06:16:35;;;;;;;8.43;1.83;;;15.20;20.10;;;;;;4987728;28;20467;-67
2023/09/24 06:19:01;;;;;;;3.60;1.50;;;15.40;20.00;;;;;;4989208;28;20488;-67
2023/09/24 06:21:28;;;;;;;3.70;1.60;;;15.50;19.80;;;;;;4985112;28;20476;-67
2023/09/24 06:23:55;;;;;;;3.30;1.37;;;15.70;19.50;;;;;;4987070;28;20500;-66
2023/09/24 06:26:22;;;;;;;4.20;1.30;;;15.90;18.80;;;;;;4986833;28;20991;-67
2023/09/24 06:28:48;;;;;;;3.83;1.63;;;16.10;18.30;;;;;;4982287;28;20491;-68
2023/09/24 06:31:17;;;;;;;3.30;1.20;;;16.30;17.60;;;;;;4984823;28;20485;-68
2023/09/24 06:33:44;;;;;;;5.30;1.60;;;16.80;16.90;;;;;;4983651;28;20855;-68
2023/09/24 06:36:10;;;;;;;4.10;1.70;;;17.30;15.30;;;;;;4982566;28;20472;-68
2023/09/24 06:38:37;;;;;;;4.00;1.60;;;17.70;14.20;;;;;;4982066;28;20469;-67
2023/09/24 06:41:04;;;;;;;4.23;1.87;;;18.00;13.60;;;;;;4983497;28;21263;-67
2023/09/24 06:43:32;;;;;;;3.73;1.50;;;18.30;13.30;;;;;;4987396;28;20565;-69
2023/09/24 06:45:59;;;;;;;3.40;1.23;;;18.60;12.60;;;;;;4993529;28;20477;-69
2023/09/24 06:48:27;;;;;;;3.70;1.50;;;19.10;11.70;;;;;;4989410;28;20480;-69
2023/09/24 06:50:54;;;;;;;3.50;1.50;;;20.00;10.30;;;;;;4991913;28;20479;-68
2023/09/24 06:53:21;;;;;;;4.17;2.00;;;20.90;8.20;;;;;;4987255;28;20535;-66
2023/09/24 06:55:48;;;;;;;3.40;1.63;;;21.80;6.10;;;;;;4986980;28;20464;-66
2023/09/24 06:58:15;;;;;;;4.30;1.60;;;22.90;4.10;;;;;;4986842;28;20464;-66
2023/09/24 07:00:41;;;;;;;3.50;1.37;;;24.00;1.70;;;;;;5002867;23;21003;-63
2023/09/24 07:03:08;;;;;;;3.70;1.70;;;25.00;1.00;;;;;;5005415;28;20475;-66
2023/09/24 07:05:38;;;;;;;3.60;1.67;;;26.00;1.00;;;;;;5010375;28;20936;-66
2023/09/24 07:08:05;;;;;;;5.40;1.90;;;27.10;1.00;;;;;;5010995;28;20455;-66
2023/09/24 07:10:32;;;;;;;6.20;1.67;;;28.20;1.00;;;;;;5010915;28;20466;-65
2023/09/24 07:12:59;;;;;;;3.83;1.77;;;29.30;1.00;;;;;;5008528;28;20468;-65
2023/09/24 07:15:26;;;;;;;3.60;1.70;;;30.30;1.00;;;;;;5010115;28;21047;-66
2023/09/24 07:17:52;;;;;;;3.40;1.50;;;31.20;1.00;;;;;;5009347;28;20832;-64
2023/09/24 07:20:20;;;;;;;4.83;2.00;;;32.00;1.00;;;;;;5008755;28;20476;-67
2023/09/24 07:22:48;;;;;;;4.07;2.17;;;32.80;1.00;;;;;;5003215;28;20475;-65
2023/09/24 07:25:15;;;;;;;6.37;1.97;;;33.60;1.00;;;;;;5007263;28;20487;-65
2023/09/24 07:27:42;;;;;;;4.97;2.03;;;33.80;1.00;;;;;;5007675;28;20479;-67
2023/09/24 07:30:09;;;;;;;5.83;2.13;;;34.40;1.00;;;;;;5004195;28;20518;-66
2023/09/24 07:32:37;;;;;;;6.70;1.90;;;34.90;1.00;;;;;;5006168;28;20561;-65
2023/09/24 07:35:04;;;;;;;3.70;1.70;;;35.50;1.00;;;;;;5005526;28;20498;-65
2023/09/24 07:37:31;;;;;;;4.50;2.30;;;36.40;1.00;;;;;;5005442;28;20471;-69
2023/09/24 07:40:01;;;;;;;6.30;2.17;;;37.20;1.00;;;;;;5009435;28;20475;-68
2023/09/24 07:42:28;;;;;;;8.90;2.40;;;37.90;1.00;;;;;;5000234;28;20460;-70
2023/09/24 07:44:55;;;;;;;5.77;1.80;;;38.60;1.00;;;;;;5008368;28;20491;-70
2023/09/24 07:47:22;;;;;;;4.83;2.30;;;39.50;1.00;;;;;;5005814;28;20537;-70
2023/09/24 07:49:48;;;;;;;5.03;1.80;;;40.10;1.00;;;;;;5005897;28;20456;-68
2023/09/24 07:52:15;;;;;;;4.80;2.10;;;40.00;1.00;;;;;;5008673;28;20480;-68
2023/09/24 07:54:42;;;;;;;4.70;2.37;;;39.90;1.00;;;;;;5007458;28;20490;-67
2023/09/24 07:57:10;;;;;;;5.40;2.30;;;40.10;1.00;;;;;;5007344;28;20468;-71
2023/09/24 07:59:37;;;;;;;5.93;1.87;;;40.10;1.00;;;;;;5008787;28;20472;-69
2023/09/24 08:02:03;;;;;;;6.93;1.67;;;40.60;1.00;;;;;;5006221;28;20478;-69
2023/09/24 08:04:30;;;;;;;4.70;2.10;;;41.00;1.00;;;;;;5011744;28;20525;-68
2023/09/24 08:06:57;;;;;;;4.70;2.70;;;41.30;1.00;;;;;;5011392;28;20479;-68
2023/09/24 08:09:23;;;;;;;4.47;2.57;;;42.00;1.00;;;;;;5011239;28;20486;-68
2023/09/24 08:11:50;;;;;;;40.57;4.30;;;42.50;1.00;;;;;;5013710;28;20487;-69
2023/09/24 08:14:18;;;;;;;8.23;1.90;;;42.90;1.00;;;;;;5008466;28;20846;-69
2023/09/24 08:16:45;;;;;;;4.20;1.80;;;42.90;1.00;;;;;;5005736;28;20460;-70
2023/09/24 08:19:12;;;;;;;4.80;1.97;;;42.20;1.00;;;;;;5005045;28;20467;-71
2023/09/24 08:21:39;;;;;;;3.60;1.60;;;42.30;1.00;;;;;;5013004;28;20455;-69
2023/09/24 08:24:06;;;;;;;4.13;1.60;;;42.40;1.00;;;;;;5009693;28;20498;-69
2023/09/24 08:26:33;;;;;;;4.50;1.80;;;42.60;1.00;;;;;;5009436;28;20486;-68
2023/09/24 08:29:02;;;;;;;4.13;1.87;;;43.00;1.00;;;;;;5007408;28;20463;-69
2023/09/24 08:31:31;;;;;;;4.10;1.83;;;43.20;1.00;;;;;;5008991;28;20482;-66
2023/09/24 08:33:57;;;;;;;4.77;1.90;;;43.30;1.00;;;;;;5006622;28;20492;-70
2023/09/24 08:36:24;;;;;;;3.93;1.73;;;43.70;1.00;;;;;;5006082;28;20475;-72
2023/09/24 08:38:51;;;;;;;4.47;2.13;;;43.90;1.00;;;;;;5008270;28;20508;-72
2023/09/24 08:41:18;;;;;;;5.20;2.10;;;44.10;1.00;;;;;;5006858;28;21015;-72
2023/09/24 08:43:46;;;;;;;3.83;2.00;;;44.20;1.00;;;;;;5008942;28;20821;-72
2023/09/24 08:46:13;;;;;;;4.27;2.10;;;43.60;1.00;;;;;;5012439;28;20471;-73
2023/09/24 08:48:42;;;;;;;4.40;1.80;;;43.40;1.00;;;;;;5011614;28;20455;-72
2023/09/24 08:51:10;;;;;;;4.10;1.83;;;43.40;1.00;;;;;;5012507;28;20970;-72
2023/09/24 08:53:39;;;;;;;5.10;2.07;;;43.80;1.00;;;;;;5006530;28;20507;-71
2023/09/24 08:56:06;;;;;;;3.90;1.80;;;43.80;1.00;;;;;;5012003;28;20807;-71
2023/09/24 08:58:33;;;;;;;5.03;2.30;;;44.40;1.00;;;;;;5011172;28;20472;-73
2023/09/24 09:01:00;;;;;;;4.30;2.10;;;44.40;1.00;;;;;;5011952;28;20509;-71
2023/09/24 09:03:28;;;;;;;5.63;1.77;;;44.20;1.00;;;;;;5009583;28;20493;-71
2023/09/24 09:05:56;;;;;;;3.50;1.47;;;44.50;1.00;;;;;;5010170;28;20472;-68
2023/09/24 09:08:22;;;;;;;3.40;1.47;;;44.60;1.00;;;;;;5011488;28;20472;-73
2023/09/24 09:10:50;;;;;;;4.27;1.73;;;44.80;1.00;;;;;;5004146;28;20467;-71
2023/09/24 09:13:19;;;;;;;7.10;1.80;;;45.10;1.00;;;;;;5009287;28;20519;-71
2023/09/24 09:15:47;;;;;;;5.00;1.70;;;45.40;1.00;;;;;;5009275;28;20839;-71
2023/09/24 09:18:23;;;;;;;6.10;1.97;;;45.90;1.00;;;;;;5009067;28;20842;-71
2023/09/24 09:20:51;;;;;;;4.60;1.70;;;46.10;1.00;;;;;;5006606;28;20471;-73
2023/09/24 09:23:31;;;;;;;4.50;1.73;;;46.10;1.00;;;;;;5007864;28;20847;-70
2023/09/24 09:25:57;;;;;;;3.57;1.53;;;46.10;1.00;;;;;;5011127;28;20485;-68
2023/09/24 09:28:25;;;;;;;4.10;1.67;;;45.60;1.00;;;;;;5006863;28;20471;-70
2023/09/24 09:31:02;;;;;;;5.33;1.70;;;45.10;1.00;;;;;;5013037;28;20474;-70
2023/09/24 09:33:31;;;;;;;3.93;1.50;;;44.70;1.00;;;;;;5008981;28;20493;-71
2023/09/24 09:35:58;;;;;;;4.37;1.90;;;44.30;1.00;;;;;;5009091;28;20479;-69
2023/09/24 09:38:26;;;;;;;4.30;1.60;;;42.40;1.00;;;;;;5011371;28;20468;-70
2023/09/24 09:40:55;;;;;;;4.47;1.50;;;41.40;1.00;;;;;;5009336;28;20512;-72
2023/09/24 09:43:26;;;;;;;4.00;1.70;;;41.80;1.00;;;;;;5006994;28;20463;-70
2023/09/24 09:45:55;;;;;;;3.50;1.10;;;41.90;1.00;;;;;;5007971;28;20459;-69
2023/09/24 09:48:30;;;;;;;5.20;1.87;;;41.50;1.00;;;;;;5007118;28;20976;-72
2023/09/24 09:51:02;;;;;;;5.37;1.40;;;39.40;1.00;;;;;;5013332;28;20473;-72
2023/09/24 09:53:35;;;;;;;4.13;1.30;;;37.10;1.00;;;;;;5010744;28;20489;-70
2023/09/24 09:56:04;;;;;;;3.50;1.27;;;37.70;1.00;;;;;;5012351;28;20813;-70
2023/09/24 09:58:32;;;;;;;3.33;1.10;;;38.10;1.00;;;;;;5008399;28;20459;-70
2023/09/24 10:01:00;;;;;;;3.60;1.30;;;38.10;1.00;;;;;;5006454;28;20477;-71
2023/09/24 10:03:28;;;;;;;4.27;1.50;;;37.80;1.00;;;;;;5006633;28;20562;-71
2023/09/24 10:05:56;;;;;;;3.90;1.17;;;39.00;1.00;;;;;;5006262;28;20463;-71
2023/09/24 10:08:47;;;;;;;6.40;1.73;;;40.00;1.00;;;;;;5006951;28;20463;-72
2023/09/24 10:11:52;;;;;;;4.07;1.30;;;39.80;1.00;;;;;;5001520;28;20479;-68
2023/09/24 10:14:33;;;;;;;3.60;1.40;;;37.30;1.00;;;;;;5010409;28;20483;-71
2023/09/24 10:17:22;;;;;;;6.03;1.13;;;38.10;1.00;;;;;;5010390;28;20471;-70
2023/09/24 10:19:50;;;;;;;4.70;1.30;;;39.50;1.00;;;;;;5007157;28;20464;-70
2023/09/24 10:22:24;;;;;;;4.50;0.90;;;40.30;1.00;;;;;;5009996;28;20468;-72
2023/09/24 10:24:52;;;;;;;4.10;1.20;;;40.80;1.00;;;;;;5009612;28;20488;-71
2023/09/24 10:27:26;;;;;;;4.10;1.40;;;40.00;1.00;;;;;;5007989;28;20478;-72
2023/09/24 10:30:10;;;;;;;5.07;1.40;;;38.50;1.00;;;;;;5003838;28;20471;-71
2023/09/24 10:32:52;;;;;;;6.27;2.40;;;38.50;1.00;;;;;;5007307;28;20483;-71
2023/09/24 10:35:20;;;;;;;4.10;1.30;;;39.30;1.00;;;;;;5004969;28;20487;-72
2023/09/24 10:38:11;;;;;;;4.30;1.07;;;39.50;1.00;;;;;;5009209;28;20824;-72
2023/09/24 10:41:06;;;;;;;5.00;1.33;;;39.40;1.00;;;;;;4988702;28;20491;-72
2023/09/24 10:43:33;;;;;;;5.27;1.23;;;37.70;1.00;;;;;;5008725;28;21006;-73
2023/09/24 10:46:30;;;;;;;5.30;1.80;;;34.50;1.00;;;;;;5008283;28;20472;-73
2023/09/24 10:48:57;;;;;;;3.70;1.23;;;32.20;1.00;;;;;;4999887;28;20456;-72
2023/09/24 10:52:02;;;;;;;3.40;1.30;;;32.80;1.00;;;;;;4997496;28;20456;-72
2023/09/24 10:54:28;;;;;;;4.63;1.40;;;34.00;1.00;;;;;;5005860;28;20487;-68
2023/09/24 10:56:57;;;;;;;3.30;1.20;;;35.00;1.00;;;;;;5008733;28;20468;-69
2023/09/24 10:59:33;;;;;;;4.87;1.70;;;34.60;1.00;;;;;;5001065;28;20469;-68
2023/09/24 11:02:14;;;;;;;4.30;1.10;;;32.60;1.00;;;;;;5002833;28;22699;-69
2023/09/24 11:04:41;;;;;;;3.90;1.30;;;30.90;1.00;;;;;;5005598;28;20495;-69
2023/09/24 11:07:10;;;;;;;4.37;1.30;;;29.50;1.00;;;;;;5004055;28;20470;-69
2023/09/24 11:09:37;;;;;;;4.30;1.23;;;28.30;1.00;;;;;;5007388;28;20460;-68
2023/09/24 11:12:10;;;;;;;4.27;1.50;;;27.30;1.00;;;;;;5005505;28;20983;-68
2023/09/24 11:14:37;;;;;;;6.00;1.30;;;27.30;1.00;;;;;;5008376;28;20494;-71
2023/09/24 11:17:04;;;;;;;4.50;1.30;;;28.00;1.00;;;;;;5006539;28;20467;-72
2023/09/24 11:19:43;;;;;;;4.90;1.33;;;28.00;1.00;;;;;;5007716;28;20467;-72
2023/09/24 11:22:18;;;;;;;4.13;1.23;;;28.90;1.00;;;;;;4995461;28;20944;-72
2023/09/24 11:24:44;;;;;;;5.40;1.40;;;29.40;1.00;;;;;;5003077;28;20502;-73
2023/09/24 11:27:13;;;;;;;3.50;1.07;;;29.70;1.00;;;;;;5004516;28;20819;-71
2023/09/24 11:29:40;;;;;;;6.40;1.50;;;29.50;1.00;;;;;;5006994;28;20464;-72
2023/09/24 11:32:07;;;;;;;5.10;1.00;;;28.70;1.00;;;;;;5006793;28;20480;-72
2023/09/24 11:34:33;;;;;;;4.40;1.60;;;28.30;1.00;;;;;;5001119;28;20866;-72
2023/09/24 11:37:05;;;;;;;5.43;1.33;;;27.90;1.00;;;;;;5007389;28;20468;-71
2023/09/24 11:39:43;;;;;;;4.30;1.30;;;27.40;1.00;;;;;;5002014;28;20472;-72
2023/09/24 11:42:19;;;;;;;5.43;1.60;;;26.80;1.00;;;;;;5002640;28;20456;-71
2023/09/24 11:44:46;;;;;;;4.60;1.20;;;26.60;1.00;;;;;;5005568;28;20487;-71
2023/09/24 11:47:13;;;;;;;4.53;1.40;;;26.20;1.00;;;;;;5007824;28;20808;-72
2023/09/24 11:49:40;;;;;;;3.70;1.10;;;26.00;1.00;;;;;;5007254;28;21164;-72
2023/09/24 11:52:09;;;;;;;5.07;1.40;;;25.70;1.00;;;;;;5006693;28;20471;-71
2023/09/24 11:54:36;;;;;;;4.40;1.20;;;25.50;1.00;;;;;;5003783;28;20487;-71
2023/09/24 11:57:02;;;;;;;3.63;0.97;;;25.40;1.00;;;;;;5008181;28;20472;-71
2023/09/24 11:59:32;;;;;;;5.60;1.60;;;25.20;1.00;;;;;;5003042;28;20475;-73
2023/09/24 12:01:58;;;;;;;3.30;1.10;;;25.20;1.00;;;;;;5006307;28;20781;-71
2023/09/24 12:04:25;;;;;;;4.70;1.17;;;25.00;1.00;;;;;;5004848;28;22346;-71
2023/09/24 12:06:52;;;;;;;4.90;1.37;;;24.70;1.00;;;;;;5007437;28;20471;-72
2023/09/24 12:09:18;;;;;;;4.40;1.27;;;24.50;1.00;;;;;;5003470;28;20467;-72
2023/09/24 12:11:45;;;;;;;4.13;1.30;;;24.30;1.00;;;;;;5004937;28;20463;-73
2023/09/24 12:14:12;;;;;;;4.60;1.60;;;24.10;1.00;;;;;;5004070;28;20488;-72
2023/09/24 12:16:40;;;;;;;4.40;1.20;;;23.80;1.00;;;;;;5001255;28;20815;-71
2023/09/24 12:19:06;;;;;;;4.20;1.40;;;23.70;1.00;;;;;;5008894;28;20471;-71
2023/09/24 12:21:33;;;;;;;5.13;1.43;;;23.50;1.00;;;;;;5008718;28;20475;-70
2023/09/24 12:24:00;;;;;;;4.83;1.37;;;23.60;1.00;;;;;;5007226;28;20487;-72
2023/09/24 12:26:27;;;;;;;6.23;1.30;;;23.50;1.00;;;;;;5007297;28;20467;-72
2023/09/24 12:28:53;;;;;;;3.80;1.30;;;23.40;1.00;;;;;;5004109;28;20547;-72
2023/09/24 12:31:20;;;;;;;3.73;1.10;;;23.30;1.00;;;;;;5005013;28;20855;-71
2023/09/24 12:33:48;;;;;;;3.87;1.10;;;23.20;1.00;;;;;;5005965;28;20491;-72
2023/09/24 12:36:15;;;;;;;4.53;1.53;;;23.10;1.00;;;;;;5002919;28;20994;-72
2023/09/24 12:38:43;;;;;;;3.80;1.10;;;23.00;1.00;;;;;;5007758;28;20925;-72
2023/09/24 12:41:11;;;;;;;4.40;1.20;;;22.80;1.00;;;;;;5000080;28;20478;-71
2023/09/24 12:43:38;;;;;;;5.37;1.37;;;22.70;1.00;;;;;;5010319;28;20494;-71
2023/09/24 12:46:08;;;;;;;4.67;1.33;;;22.60;1.00;;;;;;5015108;28;20468;-71
2023/09/24 12:48:35;;;;;;;3.90;1.00;;;22.60;1.00;;;;;;5011759;28;20479;-71
2023/09/24 12:51:04;;;;;;;5.30;1.63;;;22.50;1.00;;;;;;5009506;28;20472;-71
2023/09/24 12:53:31;;;;;;;4.10;1.27;;;22.30;1.00;;;;;;5005040;28;20499;-72
2023/09/24 12:55:58;;;;;;;4.87;1.20;;;22.20;1.00;;;;;;5010634;28;21260;-72
2023/09/24 12:58:25;;;;;;;4.73;1.40;;;22.10;1.00;;;;;;5008186;28;20468;-72